createdAt,value
2018-09-05T00:02:09.420Z,8.63
2018-09-05T00:04:36.605Z,8.17
2018-09-05T00:07:03.973Z,8.00
2018-09-05T00:09:31.276Z,8.70
2018-09-05T00:11:58.555Z,7.93
2018-09-05T00:14:25.806Z,7.80
2018-09-05T00:17:03.046Z,8.13
2018-09-05T00:19:30.554Z,8.10
2018-09-05T00:21:57.853Z,7.70
2018-09-05T00:24:25.033Z,7.57
2018-09-05T00:26:52.263Z,8.10
2018-09-05T00:29:19.513Z,7.70
2018-09-05T00:31:46.830Z,8.50
2018-09-05T00:34:14.033Z,8.60
2018-09-05T00:36:41.293Z,8.30
2018-09-05T00:39:09.759Z,8.80
2018-09-05T00:41:37.351Z,8.43
2018-09-05T00:44:04.720Z,8.87
2018-09-05T00:46:32.267Z,8.97
2018-09-05T00:48:59.922Z,9.03
2018-09-05T00:51:27.136Z,8.57
2018-09-05T00:53:54.597Z,8.77
2018-09-05T00:56:21.925Z,7.70
2018-09-05T00:58:49.135Z,7.53
2018-09-05T01:01:16.270Z,8.13
2018-09-05T01:03:43.500Z,7.73
2018-09-05T01:06:11.186Z,8.33
2018-09-05T01:08:39.164Z,8.47
2018-09-05T01:11:06.437Z,7.97
2018-09-05T01:13:33.635Z,9.37
2018-09-05T01:16:00.885Z,8.90
2018-09-05T01:18:28.198Z,8.70
2018-09-05T01:20:55.549Z,9.40
2018-09-05T01:23:22.758Z,8.60
2018-09-05T01:25:50.003Z,8.53
2018-09-05T01:28:17.319Z,8.40
2018-09-05T01:30:44.532Z,8.27
2018-09-05T01:33:11.849Z,8.53
2018-09-05T01:35:39.330Z,8.30
2018-09-05T01:38:06.540Z,8.30
2018-09-05T01:40:33.822Z,8.97
2018-09-05T01:43:01.133Z,10.37
2018-09-05T01:45:28.453Z,9.30
2018-09-05T01:47:55.679Z,9.40
2018-09-05T01:50:28.437Z,10.47
2018-09-05T01:52:55.665Z,10.17
2018-09-05T01:55:22.957Z,10.07
2018-09-05T01:57:50.265Z,10.57
2018-09-05T02:00:23.171Z,9.80
2018-09-05T02:02:50.453Z,10.03
2018-09-05T02:05:17.692Z,9.53
2018-09-05T02:07:44.951Z,11.23
2018-09-05T02:10:12.212Z,11.93
2018-09-05T02:12:39.818Z,10.07
2018-09-05T02:15:07.118Z,10.77
2018-09-05T02:17:34.296Z,10.30
2018-09-05T02:20:07.754Z,9.80
2018-09-05T02:22:35.120Z,9.00
2018-09-05T02:25:02.346Z,9.57
2018-09-05T02:27:29.595Z,9.07
2018-09-05T02:29:56.839Z,8.83
2018-09-05T02:32:24.056Z,9.10
2018-09-05T02:34:51.356Z,10.60
2018-09-05T02:37:18.826Z,10.27
2018-09-05T02:39:45.958Z,9.17
2018-09-05T02:42:13.121Z,8.87
2018-09-05T02:44:40.699Z,9.27
2018-09-05T02:47:08.196Z,8.90
2018-09-05T02:49:35.421Z,8.77
2018-09-05T02:52:02.605Z,8.90
2018-09-05T02:54:29.768Z,8.90
2018-09-05T02:56:57.020Z,8.60
2018-09-05T02:59:24.303Z,8.53
2018-09-05T03:01:51.487Z,9.00
2018-09-05T03:04:18.708Z,8.27
2018-09-05T03:06:45.869Z,9.50
2018-09-05T03:09:13.069Z,8.13
2018-09-05T03:11:40.899Z,9.60
2018-09-05T03:14:08.097Z,8.83
2018-09-05T03:16:35.317Z,9.67
2018-09-05T03:19:04.111Z,9.03
2018-09-05T03:21:29.916Z,9.37
2018-09-05T03:23:57.188Z,10.03
2018-09-05T03:26:24.408Z,10.03
2018-09-05T03:28:51.592Z,11.27
2018-09-05T03:31:18.753Z,12.70
2018-09-05T03:33:46.084Z,14.93
2018-09-05T03:36:13.403Z,17.03
2018-09-05T03:38:41.701Z,18.70
2018-09-05T03:41:09.099Z,23.73
2018-09-05T03:43:36.269Z,20.50
2018-09-05T03:46:03.491Z,24.40
2018-09-05T03:48:30.777Z,28.00
2018-09-05T03:50:58.232Z,29.57
2018-09-05T03:53:26.447Z,28.43
2018-09-05T03:55:54.456Z,32.27
2018-09-05T03:58:21.740Z,34.40
2018-09-05T04:00:49.039Z,36.63
2018-09-05T04:03:16.232Z,37.93
2018-09-05T04:05:43.340Z,36.33
2018-09-05T04:08:11.177Z,35.77
2018-09-05T04:10:38.851Z,36.40
2018-09-05T04:13:06.144Z,35.60
2018-09-05T04:15:33.303Z,36.90
2018-09-05T04:18:00.518Z,34.73
2018-09-05T04:20:27.710Z,37.00
2018-09-05T04:22:54.937Z,37.30
2018-09-05T04:25:22.300Z,35.53
2018-09-05T04:27:49.481Z,36.70
2018-09-05T04:30:16.695Z,36.47
2018-09-05T04:32:43.887Z,34.80
2018-09-05T04:35:11.326Z,34.90
2018-09-05T04:37:38.913Z,33.97
2018-09-05T04:40:06.288Z,33.23
2018-09-05T04:42:35.533Z,34.57
2018-09-05T04:45:02.870Z,34.13
2018-09-05T04:47:30.163Z,34.20
2018-09-05T04:49:57.546Z,33.67
2018-09-05T04:52:24.784Z,33.40
2018-09-05T04:54:52.037Z,31.80
2018-09-05T04:57:19.179Z,32.57
2018-09-05T04:59:46.364Z,32.73
2018-09-05T05:02:13.723Z,31.17
2018-09-05T05:04:41.060Z,31.53
2018-09-05T05:07:08.167Z,31.50
2018-09-05T05:09:35.589Z,30.93
2018-09-05T05:12:02.808Z,30.77
2018-09-05T05:14:30.034Z,31.30
2018-09-05T05:16:57.497Z,31.30
2018-09-05T05:19:24.701Z,30.40
2018-09-05T05:21:58.633Z,29.40
2018-09-05T05:24:25.881Z,30.17
2018-09-05T05:26:53.220Z,28.30
2018-09-05T05:29:20.440Z,29.57
2018-09-05T05:31:47.808Z,29.63
2018-09-05T05:34:15.422Z,29.43
2018-09-05T05:36:42.691Z,29.90
2018-09-05T05:39:11.449Z,27.93
2018-09-05T05:41:39.255Z,30.03
2018-09-05T05:44:06.525Z,27.63
2018-09-05T05:46:34.013Z,26.53
2018-09-05T05:49:01.292Z,27.63
2018-09-05T05:51:28.730Z,27.87
2018-09-05T05:53:55.944Z,27.93
2018-09-05T05:56:23.107Z,27.40
2018-09-05T05:58:50.314Z,27.37
2018-09-05T06:01:18.813Z,27.13
2018-09-05T06:03:46.040Z,27.07
2018-09-05T06:06:13.346Z,26.77
2018-09-05T06:08:40.672Z,29.17
2018-09-05T06:11:08.183Z,28.27
2018-09-05T06:13:35.450Z,28.67
2018-09-05T06:16:02.943Z,27.57
2018-09-05T06:18:30.124Z,27.17
2018-09-05T06:20:57.379Z,25.93
2018-09-05T06:23:24.546Z,23.40
2018-09-05T06:25:51.876Z,23.93
2018-09-05T06:28:19.363Z,23.97
2018-09-05T06:30:46.635Z,24.00
2018-09-05T06:33:13.706Z,24.13
2018-09-05T06:35:41.047Z,23.57
2018-09-05T06:38:09.081Z,24.23
2018-09-05T06:40:36.392Z,23.13
2018-09-05T06:43:03.644Z,23.53
2018-09-05T06:45:30.942Z,21.43
2018-09-05T06:47:58.298Z,21.53
2018-09-05T06:50:25.637Z,21.93
2018-09-05T06:52:53.036Z,21.17
2018-09-05T06:55:20.204Z,21.20
2018-09-05T06:57:47.649Z,21.07
2018-09-05T07:00:16.839Z,21.63
2018-09-05T07:02:44.059Z,21.53
2018-09-05T07:05:50.808Z,22.27
2018-09-05T07:08:18.004Z,22.73
2018-09-05T07:10:45.208Z,21.87
2018-09-05T07:13:12.420Z,22.97
2018-09-05T07:15:39.735Z,20.47
2018-09-05T07:18:06.974Z,20.77
2018-09-05T07:20:34.414Z,21.83
2018-09-05T07:23:01.504Z,22.37
2018-09-05T07:25:28.709Z,21.90
2018-09-05T07:27:56.027Z,22.33
2018-09-05T07:30:23.289Z,23.03
2018-09-05T07:32:50.605Z,23.00
2018-09-05T07:35:17.936Z,22.73
2018-09-05T07:37:45.131Z,22.73
2018-09-05T07:40:12.272Z,21.43
2018-09-05T07:42:41.761Z,21.07
2018-09-05T07:45:09.073Z,22.07
2018-09-05T07:47:36.659Z,24.30
2018-09-05T07:50:03.944Z,22.47
2018-09-05T07:52:31.408Z,22.33
2018-09-05T07:54:58.961Z,21.87
2018-09-05T07:57:27.585Z,21.07
2018-09-05T07:59:54.809Z,20.37
2018-09-05T08:02:22.581Z,20.80
2018-09-05T08:04:49.846Z,20.50
2018-09-05T08:07:17.313Z,21.63
2018-09-05T08:09:44.509Z,20.27
2018-09-05T08:12:12.021Z,20.13
2018-09-05T08:14:39.758Z,19.60
2018-09-05T08:17:07.129Z,21.43
2018-09-05T08:19:34.562Z,21.03
2018-09-05T08:22:01.765Z,20.60
2018-09-05T08:24:29.583Z,22.10
2018-09-05T08:26:57.216Z,20.47
2018-09-05T08:29:24.391Z,19.93
2018-09-05T08:31:51.689Z,20.17
2018-09-05T08:34:19.305Z,19.70
2018-09-05T08:36:46.780Z,18.97
2018-09-05T08:39:35.156Z,18.33
2018-09-05T08:42:02.703Z,16.50
2018-09-05T08:44:30.030Z,16.40
2018-09-05T08:46:57.322Z,16.70
2018-09-05T08:49:24.584Z,15.27
2018-09-05T08:51:51.752Z,15.87
2018-09-05T08:54:19.055Z,16.63
2018-09-05T08:56:46.212Z,15.07
2018-09-05T08:59:13.432Z,13.57
2018-09-05T09:01:42.174Z,13.27
2018-09-05T09:04:09.923Z,13.87
2018-09-05T09:06:37.323Z,13.70
2018-09-05T09:09:07.423Z,13.17
2018-09-05T09:11:34.644Z,12.97
2018-09-05T09:14:02.033Z,13.27
2018-09-05T09:16:29.535Z,12.70
2018-09-05T09:18:56.862Z,10.07
2018-09-05T09:21:23.972Z,11.30
2018-09-05T09:23:51.137Z,12.37
2018-09-05T09:26:18.367Z,10.73
2018-09-05T09:31:11.335Z,9.40
2018-09-05T09:33:38.440Z,9.30
2018-09-05T09:36:05.595Z,9.17
2018-09-05T09:38:32.873Z,8.63
2018-09-05T09:40:59.995Z,9.27
2018-09-05T09:43:27.274Z,9.03
2018-09-05T09:45:54.527Z,8.33
2018-09-05T09:48:21.644Z,8.53
2018-09-05T09:50:48.793Z,8.57
2018-09-05T09:53:15.948Z,8.23
2018-09-05T09:55:43.044Z,7.70
2018-09-05T09:58:10.148Z,8.40
2018-09-05T10:01:45.373Z,8.53
2018-09-05T10:04:18.155Z,7.60
2018-09-05T10:06:49.929Z,7.80
2018-09-05T10:09:23.040Z,7.57
2018-09-05T10:11:55.917Z,7.40
2018-09-05T10:14:28.768Z,6.90
2018-09-05T10:17:01.683Z,7.07
2018-09-05T10:19:28.799Z,7.00
2018-09-05T10:21:56.603Z,6.77
2018-09-05T10:24:24.065Z,7.27
2018-09-05T10:26:52.090Z,7.13
2018-09-05T10:29:19.493Z,7.40
2018-09-05T10:31:47.319Z,7.20
2018-09-05T10:34:14.424Z,6.70
2018-09-05T10:36:42.384Z,6.57
2018-09-05T10:39:10.633Z,5.93
2018-09-05T10:41:37.879Z,5.97
2018-09-05T10:44:05.113Z,5.73
2018-09-05T10:46:32.400Z,5.90
2018-09-05T10:48:59.500Z,5.40
2018-09-05T10:51:32.303Z,5.93
2018-09-05T10:53:59.451Z,5.70
2018-09-05T10:56:28.888Z,5.50
2018-09-05T10:58:56.137Z,5.60
2018-09-05T11:01:23.283Z,6.00
2018-09-05T11:03:50.390Z,5.73
2018-09-05T11:06:17.548Z,5.90
2018-09-05T11:08:44.887Z,5.63
2018-09-05T11:11:12.081Z,5.37
2018-09-05T11:13:39.314Z,6.00
2018-09-05T11:16:06.460Z,5.10
2018-09-05T11:18:33.641Z,5.90
2018-09-05T11:21:01.056Z,6.40
2018-09-05T11:23:30.034Z,5.30
2018-09-05T11:25:57.163Z,5.20
2018-09-05T11:28:24.388Z,5.10
2018-09-05T11:30:51.520Z,5.20
2018-09-05T11:33:18.619Z,5.60
2018-09-05T11:35:45.772Z,5.10
2018-09-05T11:38:12.867Z,5.83
2018-09-05T11:40:40.137Z,5.27
2018-09-05T11:43:07.371Z,5.07
2018-09-05T11:45:34.511Z,5.43
2018-09-05T11:48:01.687Z,4.90
2018-09-05T11:50:28.841Z,5.10
2018-09-05T11:52:55.936Z,5.17
2018-09-05T11:55:23.080Z,5.03
2018-09-05T11:57:50.500Z,4.70
2018-09-05T12:00:17.628Z,4.67
2018-09-05T12:02:44.756Z,4.70
2018-09-05T12:05:11.925Z,4.63
2018-09-05T12:07:39.031Z,4.90
2018-09-05T12:10:06.235Z,5.20
2018-09-05T12:12:33.509Z,5.20
2018-09-05T12:15:00.667Z,5.33
2018-09-05T12:17:28.355Z,5.97
2018-09-05T12:19:55.732Z,5.53
2018-09-05T12:22:22.944Z,5.53
2018-09-05T12:24:50.089Z,5.33
2018-09-05T12:27:17.268Z,5.77
2018-09-05T12:29:44.373Z,5.30
2018-09-05T12:32:11.519Z,5.10
2018-09-05T12:34:38.752Z,5.30
2018-09-05T12:37:05.881Z,5.60
2018-09-05T12:39:33.026Z,4.93
2018-09-05T12:42:00.197Z,4.87
2018-09-05T12:44:27.316Z,5.60
2018-09-05T12:46:54.513Z,5.13
2018-09-05T12:49:21.684Z,5.13
2018-09-05T12:51:48.804Z,5.80
2018-09-05T12:54:15.935Z,5.40
2018-09-05T12:56:43.097Z,5.40
2018-09-05T12:59:10.304Z,5.23
2018-09-05T13:01:37.516Z,4.77
2018-09-05T13:04:04.715Z,5.27
2018-09-05T13:06:31.847Z,5.10
2018-09-05T13:08:59.367Z,4.80
2018-09-05T13:11:26.780Z,4.80
2018-09-05T13:13:54.039Z,4.63
2018-09-05T13:16:21.316Z,5.30
2018-09-05T13:18:48.748Z,4.83
2018-09-05T13:21:15.977Z,5.13
2018-09-05T13:23:43.249Z,5.00
2018-09-05T13:26:10.668Z,5.33
2018-09-05T13:28:37.812Z,4.97
2018-09-05T13:31:05.051Z,4.97
2018-09-05T13:33:37.962Z,5.07
2018-09-05T13:36:10.973Z,5.00
2018-09-05T13:38:38.158Z,5.50
2018-09-05T13:41:05.300Z,5.47
2018-09-05T13:43:38.353Z,5.40
2018-09-05T13:46:05.558Z,5.47
2018-09-05T13:48:32.776Z,4.90
2018-09-05T13:51:00.073Z,5.20
2018-09-05T13:53:27.237Z,5.13
2018-09-05T13:56:01.672Z,4.90
2018-09-05T13:58:29.555Z,5.07
2018-09-05T14:00:56.663Z,5.30
2018-09-05T14:03:23.857Z,5.47
2018-09-05T14:05:51.005Z,5.27
2018-09-05T14:08:19.162Z,5.40
2018-09-05T14:10:46.394Z,5.17
2018-09-05T14:13:13.542Z,5.17
2018-09-05T14:15:40.665Z,5.37
2018-09-05T14:18:07.835Z,4.70
2018-09-05T14:20:34.999Z,5.27
2018-09-05T14:23:02.167Z,5.13
2018-09-05T14:25:29.333Z,5.20
2018-09-05T14:27:56.428Z,5.10
2018-09-05T14:30:23.538Z,5.03
2018-09-05T14:32:50.780Z,5.40
2018-09-05T14:35:18.016Z,4.97
2018-09-05T14:37:45.313Z,4.93
2018-09-05T14:40:12.496Z,4.50
2018-09-05T14:42:39.661Z,5.20
2018-09-05T14:45:06.820Z,4.30
2018-09-05T14:47:34.045Z,4.40
2018-09-05T14:50:01.197Z,4.70
2018-09-05T14:52:28.383Z,4.80
2018-09-05T14:54:55.561Z,4.53
2018-09-05T14:57:22.706Z,4.50
2018-09-05T14:59:50.477Z,5.47
2018-09-05T15:02:18.816Z,5.07
2018-09-05T15:04:46.323Z,4.37
2018-09-05T15:07:13.447Z,4.60
2018-09-05T15:09:40.621Z,4.93
2018-09-05T15:12:07.749Z,4.80
2018-09-05T15:14:34.870Z,4.70
2018-09-05T15:17:02.033Z,4.90
2018-09-05T15:19:29.201Z,5.23
2018-09-05T15:21:56.364Z,5.27
2018-09-05T15:24:23.525Z,5.27
2018-09-05T15:26:50.639Z,4.63
2018-09-05T15:29:17.756Z,4.47
2018-09-05T15:31:44.934Z,4.70
2018-09-05T15:34:12.057Z,4.80
2018-09-05T15:36:39.186Z,4.80
2018-09-05T15:39:08.082Z,4.47
2018-09-05T15:41:35.447Z,4.63
2018-09-05T15:44:02.572Z,4.40
2018-09-05T15:46:29.745Z,4.67
2018-09-05T15:48:56.964Z,4.33
2018-09-05T15:51:24.077Z,5.00
2018-09-05T15:53:51.283Z,4.77
2018-09-05T15:56:19.399Z,4.80
2018-09-05T15:58:46.507Z,4.60
2018-09-05T16:01:13.745Z,4.97
2018-09-05T16:03:40.918Z,5.03
2018-09-05T16:06:08.007Z,4.90
2018-09-05T16:08:35.372Z,5.17
2018-09-05T16:11:02.605Z,4.30
2018-09-05T16:13:29.831Z,4.60
2018-09-05T16:15:56.988Z,4.77
2018-09-05T16:18:24.116Z,4.67
2018-09-05T16:20:51.296Z,4.57
2018-09-05T16:23:18.484Z,4.80
2018-09-05T16:25:45.667Z,4.70
2018-09-05T16:28:12.765Z,5.13
2018-09-05T16:30:39.958Z,4.80
2018-09-05T16:33:07.073Z,4.70
2018-09-05T16:35:34.222Z,4.67
2018-09-05T16:38:01.455Z,4.73
2018-09-05T16:40:28.571Z,4.83
2018-09-05T16:42:55.688Z,5.20
2018-09-05T16:45:22.895Z,4.90
2018-09-05T16:47:50.060Z,4.60
2018-09-05T16:50:17.249Z,4.70
2018-09-05T16:52:44.411Z,4.40
2018-09-05T16:55:11.612Z,4.53
2018-09-05T16:57:38.728Z,4.40
2018-09-05T17:00:06.110Z,4.80
2018-09-05T17:02:33.313Z,4.50
2018-09-05T17:05:00.455Z,5.10
2018-09-05T17:07:27.634Z,4.53
2018-09-05T17:09:54.787Z,4.63
2018-09-05T17:12:21.892Z,4.77
2018-09-05T17:14:49.187Z,4.93
2018-09-05T17:17:16.300Z,5.10
2018-09-05T17:19:43.412Z,4.80
2018-09-05T17:22:10.632Z,4.80
2018-09-05T17:24:37.821Z,4.60
2018-09-05T17:27:05.049Z,5.40
2018-09-05T17:29:32.213Z,4.70
2018-09-05T17:31:59.325Z,4.77
2018-09-05T17:34:26.484Z,4.93
2018-09-05T17:36:53.651Z,4.83
2018-09-05T17:39:20.870Z,5.10
2018-09-05T17:41:47.980Z,5.40
2018-09-05T17:44:18.965Z,4.63
2018-09-05T17:46:46.076Z,4.70
2018-09-05T17:49:13.197Z,4.93
2018-09-05T17:51:40.456Z,5.27
2018-09-05T17:54:07.607Z,6.13
2018-09-05T17:56:34.896Z,5.80
2018-09-05T17:59:01.991Z,6.07
2018-09-05T18:01:39.921Z,5.80
2018-09-05T18:04:07.070Z,6.17
2018-09-05T18:06:34.253Z,5.80
2018-09-05T18:09:01.375Z,6.83
2018-09-05T18:11:28.612Z,6.40
2018-09-05T18:13:55.755Z,6.27
2018-09-05T18:16:22.963Z,6.50
2018-09-05T18:18:50.132Z,6.60
2018-09-05T18:21:17.264Z,5.97
2018-09-05T18:23:45.054Z,6.00
2018-09-05T18:26:12.230Z,6.23
2018-09-05T18:28:39.436Z,5.83
2018-09-05T18:31:06.568Z,5.70
2018-09-05T18:33:33.734Z,6.07
2018-09-05T18:36:01.520Z,6.07
2018-09-05T18:38:28.653Z,5.97
2018-09-05T18:40:55.933Z,6.00
2018-09-05T18:43:23.049Z,6.00
2018-09-05T18:45:50.167Z,6.63
2018-09-05T18:48:17.347Z,5.73
2018-09-05T18:50:44.686Z,5.47
2018-09-05T18:53:12.911Z,6.00
2018-09-05T18:55:41.511Z,6.27
2018-09-05T18:58:08.741Z,5.80
2018-09-05T19:00:36.335Z,6.07
2018-09-05T19:03:03.476Z,6.13
2018-09-05T19:05:30.712Z,5.67
2018-09-05T19:07:57.821Z,6.50
2018-09-05T19:10:24.979Z,6.33
2018-09-05T19:12:52.862Z,6.53
2018-09-05T19:15:20.595Z,6.30
2018-09-05T19:17:48.214Z,6.37
2018-09-05T19:20:15.436Z,5.90
2018-09-05T19:22:42.709Z,6.23
2018-09-05T19:25:09.903Z,6.17
2018-09-05T19:27:37.493Z,6.00
2018-09-05T19:30:05.568Z,6.43
2018-09-05T19:32:35.135Z,6.10
2018-09-05T19:35:02.303Z,6.27
2018-09-05T19:37:29.486Z,6.00
2018-09-05T19:39:56.703Z,5.93
2018-09-05T19:42:24.052Z,6.93
2018-09-05T19:44:51.132Z,5.90
2018-09-05T19:47:18.351Z,5.80
2018-09-05T19:49:45.693Z,6.07
2018-09-05T19:52:13.513Z,6.40
2018-09-05T19:54:40.834Z,5.90
2018-09-05T19:57:08.015Z,6.60
2018-09-05T19:59:35.130Z,5.47
2018-09-05T20:02:02.470Z,6.20
2018-09-05T20:04:30.384Z,6.37
2018-09-05T20:06:57.581Z,5.97
2018-09-05T20:09:25.853Z,5.90
2018-09-05T20:11:52.973Z,6.30
2018-09-05T20:14:20.211Z,6.47
2018-09-05T20:16:47.905Z,6.20
2018-09-05T20:19:15.361Z,6.30
2018-09-05T20:21:42.463Z,6.13
2018-09-05T20:24:09.681Z,6.13
2018-09-05T20:26:36.851Z,6.33
2018-09-05T20:29:03.963Z,6.23
2018-09-05T20:31:31.228Z,6.40
2018-09-05T20:33:58.397Z,7.00
2018-09-05T20:36:25.624Z,6.43
2018-09-05T20:38:52.797Z,6.43
2018-09-05T20:41:33.784Z,6.90
2018-09-05T20:44:00.996Z,5.80
2018-09-05T20:46:28.204Z,6.43
2018-09-05T20:48:55.384Z,6.60
2018-09-05T20:51:22.578Z,6.53
2018-09-05T20:53:49.772Z,7.00
2018-09-05T20:56:16.981Z,6.93
2018-09-05T20:58:44.227Z,6.60
2018-09-05T21:01:11.385Z,6.83
2018-09-05T21:03:38.535Z,6.23
2018-09-05T21:06:06.200Z,6.80
2018-09-05T21:08:33.399Z,7.03
2018-09-05T21:11:02.773Z,6.63
2018-09-05T21:13:36.651Z,6.50
2018-09-05T21:16:11.165Z,6.47
2018-09-05T21:18:38.572Z,6.70
2018-09-05T21:21:06.212Z,6.50
2018-09-05T21:23:33.404Z,6.70
2018-09-05T21:26:00.650Z,6.70
2018-09-05T21:28:27.851Z,7.00
2018-09-05T21:30:55.163Z,6.60
2018-09-05T21:33:22.400Z,6.77
2018-09-05T21:35:49.493Z,6.90
2018-09-05T21:38:16.616Z,7.13
2018-09-05T21:40:43.825Z,6.90
2018-09-05T21:43:11.067Z,7.00
2018-09-05T21:45:38.299Z,6.87
2018-09-05T21:48:05.489Z,7.33
2018-09-05T21:50:32.624Z,7.07
2018-09-05T21:52:59.871Z,7.57
2018-09-05T21:55:27.111Z,6.77
2018-09-05T21:57:54.316Z,7.47
2018-09-05T22:00:21.428Z,6.50
2018-09-05T22:02:48.766Z,7.10
2018-09-05T22:05:15.968Z,7.60
2018-09-05T22:07:43.185Z,7.70
2018-09-05T22:10:10.401Z,8.73
2018-09-05T22:12:37.500Z,7.00
2018-09-05T22:15:04.932Z,8.60
2018-09-05T22:17:32.144Z,7.93
2018-09-05T22:19:59.328Z,7.53
2018-09-05T22:22:26.483Z,7.50
2018-09-05T22:24:53.705Z,7.70
2018-09-05T22:27:20.831Z,8.03
2018-09-05T22:29:47.987Z,8.00
2018-09-05T22:32:15.241Z,8.37
2018-09-05T22:34:42.424Z,7.80
2018-09-05T22:37:09.535Z,7.60
2018-09-05T22:39:36.769Z,8.23
2018-09-05T22:42:04.016Z,7.60
2018-09-05T22:44:42.825Z,8.47
2018-09-05T22:47:21.556Z,8.13
2018-09-05T22:51:03.587Z,8.00
2018-09-05T22:54:47.275Z,7.80
2018-09-05T22:58:25.272Z,8.60
2018-09-05T23:01:04.292Z,8.40
2018-09-05T23:03:59.402Z,8.30
2018-09-05T23:06:38.883Z,8.63
2018-09-05T23:09:07.719Z,8.17
2018-09-05T23:11:59.660Z,8.23
2018-09-05T23:15:41.979Z,8.70
2018-09-05T23:20:18.559Z,8.47
2018-09-05T23:22:57.209Z,8.70
2018-09-05T23:25:24.396Z,7.83
2018-09-05T23:27:51.486Z,9.20
2018-09-05T23:30:18.786Z,8.47
2018-09-05T23:32:45.921Z,8.73
2018-09-05T23:35:13.076Z,9.07
2018-09-05T23:37:40.307Z,9.00
2018-09-05T23:40:07.508Z,8.87
2018-09-05T23:42:34.763Z,8.57
2018-09-05T23:45:01.946Z,9.00
2018-09-05T23:47:29.094Z,9.07
2018-09-05T23:49:56.260Z,9.47
2018-09-05T23:52:23.431Z,9.10
2018-09-05T23:54:50.649Z,8.90
2018-09-05T23:57:17.761Z,9.17
2018-09-05T23:59:44.913Z,9.87
